createdAt,value
2023-06-21T06:55:25.502Z,83.20
2023-06-21T06:58:05.018Z,83.13
2023-06-21T07:00:32.752Z,82.06
2023-06-21T07:02:59.246Z,80.85
2023-06-21T07:05:27.088Z,81.19
2023-06-21T07:07:54.565Z,80.45
2023-06-21T07:10:21.279Z,77.55
2023-06-21T07:12:47.699Z,78.03
2023-06-21T07:15:14.074Z,77.21
2023-06-21T07:17:40.460Z,77.52
2023-06-21T07:20:09.310Z,77.51
2023-06-21T07:22:36.456Z,77.38
2023-06-21T07:25:02.981Z,77.22
2023-06-21T07:27:29.677Z,77.11
2023-06-21T07:29:56.663Z,76.74
2023-06-21T07:32:23.013Z,76.37
2023-06-21T07:34:49.648Z,77.34
2023-06-21T07:37:16.198Z,78.25
2023-06-21T07:39:53.853Z,78.49
2023-06-21T07:42:21.156Z,75.14
2023-06-21T07:44:47.944Z,74.67
2023-06-21T07:47:14.518Z,74.79
2023-06-21T07:49:41.145Z,73.47
2023-06-21T07:52:07.584Z,73.23
2023-06-21T07:54:33.932Z,73.96
2023-06-21T07:57:00.340Z,73.40
2023-06-21T07:59:26.691Z,72.44
2023-06-21T08:01:53.118Z,70.76
2023-06-21T08:06:45.972Z,70.96
2023-06-21T08:09:12.368Z,71.22
2023-06-21T08:11:38.776Z,70.92
2023-06-21T08:14:05.154Z,68.35
2023-06-21T08:16:31.958Z,68.30
2023-06-21T08:18:58.335Z,67.98
2023-06-21T08:21:24.749Z,67.87
2023-06-21T08:23:51.140Z,67.48
2023-06-21T08:26:17.603Z,67.56
2023-06-21T08:28:46.350Z,67.17
2023-06-21T08:31:13.154Z,66.86
2023-06-21T08:33:39.609Z,65.35
2023-06-21T08:36:08.052Z,64.44
2023-06-21T08:38:34.863Z,63.84
2023-06-21T08:41:03.642Z,63.82
2023-06-21T08:43:34.328Z,63.74
2023-06-21T08:46:08.319Z,63.91
2023-06-21T08:48:36.544Z,63.62
2023-06-21T08:51:06.422Z,63.47
2023-06-21T08:53:37.802Z,61.77
2023-06-21T08:56:05.234Z,61.52
2023-06-21T08:58:37.015Z,61.87
2023-06-21T09:01:05.276Z,60.96
2023-06-21T09:03:44.992Z,60.94
2023-06-21T09:06:14.475Z,58.30
2023-06-21T09:08:42.364Z,57.80
2023-06-21T09:11:09.492Z,57.54
2023-06-21T09:13:37.145Z,57.66
2023-06-21T09:16:06.371Z,57.64
2023-06-21T09:18:37.283Z,57.56
2023-06-21T09:21:04.342Z,58.18
2023-06-21T09:23:30.827Z,56.34
2023-06-21T09:25:57.474Z,56.81
2023-06-21T09:28:26.299Z,56.25
2023-06-21T09:30:52.745Z,55.87
2023-06-21T09:33:19.855Z,57.49
2023-06-21T09:35:46.931Z,56.84
2023-06-21T09:38:20.502Z,56.42
2023-06-21T09:40:49.948Z,55.87
2023-06-21T09:43:19.938Z,54.92
2023-06-21T09:46:05.662Z,54.96
2023-06-21T09:48:35.852Z,55.19
2023-06-21T09:51:03.829Z,54.74
2023-06-21T09:53:30.374Z,54.51
2023-06-21T09:56:02.801Z,54.57
2023-06-21T09:58:29.961Z,54.16
2023-06-21T10:01:00.702Z,52.67
2023-06-21T10:03:28.361Z,51.58
2023-06-21T10:05:55.941Z,51.49
2023-06-21T10:08:27.440Z,49.88
2023-06-21T10:10:54.033Z,49.38
2023-06-21T10:13:26.944Z,48.52
2023-06-21T10:15:54.547Z,47.54
2023-06-21T10:18:21.171Z,47.27
2023-06-21T10:20:50.282Z,47.14
2023-06-21T10:23:16.875Z,47.95
2023-06-21T10:25:45.520Z,47.05
2023-06-21T10:28:14.609Z,46.81
2023-06-21T10:30:43.422Z,44.84
2023-06-21T10:33:10.279Z,45.30
2023-06-21T10:35:43.318Z,48.31
2023-06-21T10:38:12.547Z,50.67
2023-06-21T10:40:41.020Z,51.06
2023-06-21T10:43:08.612Z,47.65
2023-06-21T10:45:38.302Z,45.15
2023-06-21T10:48:06.322Z,43.91
2023-06-21T10:50:33.658Z,41.81
2023-06-21T10:53:00.690Z,40.25
2023-06-21T10:55:28.059Z,40.69
2023-06-21T10:57:55.144Z,40.70
2023-06-21T11:00:22.910Z,40.63
2023-06-21T11:02:49.652Z,39.75
2023-06-21T11:05:22.103Z,39.38
2023-06-21T11:07:54.590Z,38.58
2023-06-21T11:10:21.893Z,38.99
2023-06-21T11:12:48.573Z,38.37
2023-06-21T11:15:21.545Z,39.21
2023-06-21T11:17:56.266Z,37.61
2023-06-21T11:20:24.884Z,38.01
2023-06-21T11:23:01.762Z,37.97
2023-06-21T11:25:29.110Z,38.79
2023-06-21T11:28:15.084Z,41.39
2023-06-21T11:31:03.429Z,39.33
2023-06-21T11:33:30.732Z,41.19
2023-06-21T11:36:04.662Z,39.41
2023-06-21T11:38:31.662Z,38.68
2023-06-21T11:41:28.866Z,38.14
2023-06-21T12:02:15.838Z,36.65
2023-06-21T12:04:44.047Z,37.91
2023-06-21T12:07:11.418Z,38.18
2023-06-21T12:09:39.173Z,40.77
2023-06-21T12:12:06.603Z,39.01
2023-06-21T12:14:33.301Z,38.56
2023-06-21T12:17:00.654Z,38.03
2023-06-21T12:19:29.723Z,35.77
2023-06-21T12:22:00.072Z,35.82
2023-06-21T12:24:32.082Z,36.73
2023-06-21T12:27:02.200Z,36.97
2023-06-21T12:29:29.165Z,37.18
2023-06-21T12:31:59.222Z,36.55
2023-06-21T12:34:26.853Z,35.46
2023-06-21T12:40:04.817Z,34.08
2023-06-21T12:43:01.089Z,34.26
2023-06-21T12:45:33.521Z,34.26
2023-06-21T12:48:51.554Z,37.35
2023-06-21T12:51:08.951Z,38.39
2023-06-21T12:54:08.744Z,38.06
2023-06-21T13:02:38.930Z,35.14
2023-06-21T13:05:05.642Z,34.45
2023-06-21T13:07:32.028Z,32.34
2023-06-21T13:09:58.567Z,31.42
2023-06-21T13:12:29.577Z,31.79
2023-06-21T13:14:59.300Z,31.60
2023-06-21T13:17:34.397Z,30.43
2023-06-21T13:20:02.943Z,29.13
2023-06-21T13:22:30.748Z,29.26
2023-06-21T13:27:45.893Z,30.64
2023-06-21T13:30:12.773Z,30.51
2023-06-21T13:32:40.414Z,28.30
2023-06-21T13:35:10.108Z,27.98
2023-06-21T13:37:36.645Z,28.52
2023-06-21T13:40:03.270Z,30.83
2023-06-21T13:42:29.786Z,32.34
2023-06-21T13:44:56.475Z,33.69
2023-06-21T13:47:23.082Z,35.07
2023-06-21T13:49:50.015Z,32.87
2023-06-21T13:52:20.513Z,30.96
2023-06-21T13:54:47.540Z,31.85
2023-06-21T13:57:15.940Z,32.65
2023-06-21T13:59:46.788Z,31.00
2023-06-21T14:02:14.132Z,29.32
2023-06-21T14:04:45.325Z,28.80
2023-06-21T14:07:12.971Z,28.17
2023-06-21T14:10:06.545Z,30.42
2023-06-21T14:12:34.093Z,32.16
2023-06-21T14:15:00.874Z,29.94
2023-06-21T14:17:27.617Z,29.99
2023-06-21T14:19:54.396Z,28.08
2023-06-21T14:22:20.962Z,27.29
2023-06-21T14:25:25.976Z,26.42
2023-06-21T14:27:52.754Z,26.83
2023-06-21T14:30:29.953Z,25.97
2023-06-21T14:32:56.882Z,25.70
2023-06-21T14:35:25.045Z,25.67
2023-06-21T14:37:54.948Z,25.21
2023-06-21T14:40:21.684Z,26.30
2023-06-21T14:42:48.400Z,24.91
2023-06-21T14:45:14.944Z,25.43
2023-06-21T14:47:41.559Z,25.54
2023-06-21T14:50:08.382Z,25.05
2023-06-21T14:52:34.885Z,25.51
2023-06-21T14:55:01.378Z,25.64
2023-06-21T14:57:27.941Z,26.78
2023-06-21T14:59:54.381Z,25.90
2023-06-21T15:02:20.989Z,25.05
2023-06-21T15:04:47.499Z,24.91
2023-06-21T15:07:19.017Z,24.24
2023-06-21T15:09:46.755Z,25.47
2023-06-21T15:12:13.600Z,27.04
2023-06-21T15:14:40.324Z,26.69
2023-06-21T15:17:07.162Z,25.75
2023-06-21T15:19:33.612Z,26.14
2023-06-21T15:22:00.195Z,25.49
2023-06-21T15:24:26.684Z,25.21
2023-06-21T15:26:53.570Z,24.53
2023-06-21T15:29:20.466Z,23.95
2023-06-21T15:31:46.936Z,24.39
2023-06-21T15:34:14.206Z,23.87
2023-06-21T15:36:42.466Z,23.68
2023-06-21T15:39:10.054Z,24.46
2023-06-21T15:41:37.816Z,24.26
2023-06-21T15:44:07.220Z,23.89
2023-06-21T15:46:34.687Z,26.01
2023-06-21T15:49:04.542Z,25.92
2023-06-21T15:51:31.295Z,25.55
2023-06-21T15:53:57.986Z,24.89
2023-06-21T15:56:25.991Z,25.33
2023-06-21T15:58:52.885Z,24.75
2023-06-21T16:01:20.433Z,25.39
2023-06-21T16:03:48.446Z,24.82
2023-06-21T16:06:16.077Z,24.41
2023-06-21T16:08:43.038Z,24.70
2023-06-21T16:11:13.005Z,25.33
2023-06-21T16:16:13.588Z,25.73
2023-06-21T16:18:40.209Z,24.98
2023-06-21T16:21:07.205Z,24.15
2023-06-21T16:23:34.449Z,25.49
2023-06-21T16:26:02.036Z,24.99
2023-06-21T16:28:28.992Z,25.09
2023-06-21T16:30:55.611Z,25.48
2023-06-21T16:33:22.191Z,25.71
2023-06-21T16:35:49.178Z,25.76
2023-06-21T16:38:16.055Z,25.50
2023-06-21T16:40:42.706Z,25.09
2023-06-21T16:43:09.385Z,24.80
2023-06-21T16:45:36.023Z,25.19
2023-06-21T16:48:03.429Z,24.66
2023-06-21T16:50:30.176Z,25.79
2023-06-21T16:52:56.875Z,25.33
2023-06-21T16:55:23.361Z,25.64
2023-06-21T16:57:49.983Z,25.53
2023-06-21T17:00:16.843Z,26.61
2023-06-21T17:02:43.874Z,26.86
2023-06-21T17:05:23.693Z,26.79
2023-06-21T17:10:50.064Z,26.00
2023-06-21T17:13:24.507Z,25.59
2023-06-21T17:15:57.523Z,25.83
2023-06-21T17:21:17.218Z,25.46
2023-06-21T17:23:44.052Z,25.28
2023-06-21T17:26:10.936Z,25.44
2023-06-21T17:28:37.549Z,25.65
2023-06-21T17:31:04.130Z,26.46
2023-06-21T17:33:30.922Z,26.67
2023-06-21T17:35:57.494Z,27.07
2023-06-21T17:38:23.998Z,26.72
2023-06-21T17:40:50.472Z,27.41
2023-06-21T17:43:17.083Z,26.87
2023-06-21T17:45:43.756Z,26.99
2023-06-21T17:48:10.303Z,27.84
2023-06-21T17:50:36.791Z,27.80
2023-06-21T17:53:03.309Z,27.86
2023-06-21T17:55:30.053Z,27.91
2023-06-21T17:57:56.853Z,28.01
2023-06-21T18:00:23.568Z,28.16
2023-06-21T18:02:50.574Z,28.05
2023-06-21T18:05:17.106Z,27.41
2023-06-21T18:07:43.715Z,27.82
2023-06-21T18:10:10.667Z,27.96
2023-06-21T18:12:37.214Z,29.00
2023-06-21T18:15:04.530Z,29.06
2023-06-21T18:17:31.106Z,28.96
2023-06-21T18:19:57.587Z,29.82
2023-06-21T18:22:33.651Z,30.30
2023-06-21T18:25:08.877Z,31.34
2023-06-21T18:27:35.438Z,31.61
2023-06-21T18:30:08.791Z,31.70
2023-06-21T18:32:39.177Z,31.17
2023-06-21T18:35:09.697Z,30.71
2023-06-21T18:37:38.572Z,31.15
2023-06-21T18:40:05.977Z,31.48
2023-06-21T18:42:32.530Z,32.02
2023-06-21T18:44:59.259Z,31.96
2023-06-21T18:47:25.860Z,32.69
